< < Back
Terminal Aerodrome Forecast


Current Version              Previous Versions:   1  2  3  4  5  6  7  8  9  

Terminal Aerodrome Forecast

515
FTUS42 KGSP 232320
TAFAND
TAF
KAND 232320Z 2400/2424 00000KT P6SM FEW250
      TEMPO 2408/2412 3SM BR
     FM241400 22005KT P6SM SKC=



Latest METAR

089
SAUS70 KWBC 241100 RRA
MTRAND
METAR KAND 241056Z AUTO 31003KT 10SM CLR 07/06 A3007 RMK AO2 SLP181
T00670056


USA.gov is the U.S. government's official web portal to all federal, state and local government web resources and services.